sensor_id;sensor_type;location;lat;lon;timestamp;pressure;altitude;pressure_sealevel;temperature;humidity
18275;BME280;19470;49.322;7.218;2022-12-22T00:02:19;97982.56;;;13.05;100.00
18275;BME280;19470;49.322;7.218;2022-12-22T00:05:11;97973.91;;;12.79;100.00
18275;BME280;19470;49.322;7.218;2022-12-22T00:07:55;97971.41;;;13.03;100.00
18275;BME280;19470;49.322;7.218;2022-12-22T00:10:39;97964.06;;;13.35;100.00
18275;BME280;19470;49.322;7.218;2022-12-22T00:13:23;97959.19;;;13.47;100.00
18275;BME280;19470;49.322;7.218;2022-12-22T00:16:07;97959.97;;;13.47;100.00
18275;BME280;19470;49.322;7.218;2022-12-22T00:18:53;97939.69;;;13.12;100.00
18275;BME280;19470;49.322;7.218;2022-12-22T00:21:37;97948.34;;;13.38;100.00
18275;BME280;19470;49.322;7.218;2022-12-22T00:24:21;97932.06;;;13.45;100.00
18275;BME280;19470;49.322;7.218;2022-12-22T00:27:07;97924.22;;;13.29;100.00
18275;BME280;19470;49.322;7.218;2022-12-22T00:29:55;97931.06;;;13.70;100.00
18275;BME280;19470;49.322;7.218;2022-12-22T00:32:39;97925.06;;;13.54;100.00
18275;BME280;19470;49.322;7.218;2022-12-22T00:35:24;97918.97;;;13.53;100.00
18275;BME280;19470;49.322;7.218;2022-12-22T00:38:13;97930.31;;;13.30;100.00
18275;BME280;19470;49.322;7.218;2022-12-22T00:40:57;97916.63;;;13.47;100.00
18275;BME280;19470;49.322;7.218;2022-12-22T00:43:41;97921.50;;;13.35;100.00
18275;BME280;19470;49.322;7.218;2022-12-22T00:46:25;97920.59;;;13.49;100.00
18275;BME280;19470;49.322;7.218;2022-12-22T00:49:09;97913.69;;;13.77;100.00
18275;BME280;19470;49.322;7.218;2022-12-22T00:51:54;97908.31;;;13.19;100.00
18275;BME280;19470;49.322;7.218;2022-12-22T00:54:38;97911.50;;;13.55;100.00
18275;BME280;19470;49.322;7.218;2022-12-22T00:57:23;97925.06;;;13.54;100.00
18275;BME280;19470;49.322;7.218;2022-12-22T01:00:14;97915.66;;;13.38;100.00
18275;BME280;19470;49.322;7.218;2022-12-22T01:02:58;97913.59;;;13.59;100.00
18275;BME280;19470;49.322;7.218;2022-12-22T01:05:42;97909.03;;;13.64;100.00
18275;BME280;19470;49.322;7.218;2022-12-22T01:08:27;97897.31;;;13.31;100.00
18275;BME280;19470;49.322;7.218;2022-12-22T01:11:11;97896.84;;;13.58;100.00
18275;BME280;19470;49.322;7.218;2022-12-22T01:13:55;97916.34;;;13.77;100.00
18275;BME280;19470;49.322;7.218;2022-12-22T01:16:39;97905.56;;;13.64;100.00
18275;BME280;19470;49.322;7.218;2022-12-22T01:19:23;97891.31;;;13.84;100.00
18275;BME280;19470;49.322;7.218;2022-12-22T01:22:09;97893.47;;;13.76;100.00
18275;BME280;19470;49.322;7.218;2022-12-22T01:24:55;97893.88;;;13.65;100.00
18275;BME280;19470;49.322;7.218;2022-12-22T01:27:39;97899.88;;;13.46;100.00
18275;BME280;19470;49.322;7.218;2022-12-22T01:30:23;97896.59;;;13.25;100.00
18275;BME280;19470;49.322;7.218;2022-12-22T01:33:10;97881.81;;;13.09;100.00
18275;BME280;19470;49.322;7.218;2022-12-22T01:35:54;97892.38;;;13.53;100.00
18275;BME280;19470;49.322;7.218;2022-12-22T01:38:38;97902.56;;;13.02;100.00
18275;BME280;19470;49.322;7.218;2022-12-22T01:41:24;97881.16;;;13.27;100.00
18275;BME280;19470;49.322;7.218;2022-12-22T01:44:12;97882.50;;;13.20;100.00
18275;BME280;19470;49.322;7.218;2022-12-22T01:47:33;97879.53;;;13.32;100.00
18275;BME280;19470;49.322;7.218;2022-12-22T01:50:22;97887.91;;;13.10;100.00
18275;BME280;19470;49.322;7.218;2022-12-22T01:53:11;97878.56;;;13.12;100.00
18275;BME280;19470;49.322;7.218;2022-12-22T01:55:58;97849.56;;;13.50;100.00
18275;BME280;19470;49.322;7.218;2022-12-22T01:58:46;97863.53;;;13.37;100.00
18275;BME280;19470;49.322;7.218;2022-12-22T02:01:32;97860.44;;;13.53;100.00
18275;BME280;19470;49.322;7.218;2022-12-22T02:04:18;97864.91;;;13.29;100.00
18275;BME280;19470;49.322;7.218;2022-12-22T02:07:14;97868.31;;;13.35;100.00
18275;BME280;19470;49.322;7.218;2022-12-22T02:10:10;97853.16;;;13.35;100.00
18275;BME280;19470;49.322;7.218;2022-12-22T02:13:02;97863.59;;;13.32;100.00
18275;BME280;19470;49.322;7.218;2022-12-22T02:15:54;97849.22;;;13.33;100.00
18275;BME280;19470;49.322;7.218;2022-12-22T02:18:47;97857.03;;;13.48;100.00
18275;BME280;19470;49.322;7.218;2022-12-22T02:21:44;97842.56;;;13.30;100.00
18275;BME280;19470;49.322;7.218;2022-12-22T02:24:34;97824.00;;;13.54;100.00
18275;BME280;19470;49.322;7.218;2022-12-22T02:27:23;97812.78;;;13.33;100.00
18275;BME280;19470;49.322;7.218;2022-12-22T02:30:09;97801.84;;;13.35;100.00
18275;BME280;19470;49.322;7.218;2022-12-22T02:32:53;97806.75;;;13.22;100.00
18275;BME280;19470;49.322;7.218;2022-12-22T02:35:44;97798.16;;;13.30;100.00
18275;BME280;19470;49.322;7.218;2022-12-22T02:38:36;97793.47;;;13.17;100.00
18275;BME280;19470;49.322;7.218;2022-12-22T02:41:31;97798.78;;;13.17;100.00
18275;BME280;19470;49.322;7.218;2022-12-22T02:44:25;97806.00;;;13.12;100.00
18275;BME280;19470;49.322;7.218;2022-12-22T02:47:18;97780.31;;;13.02;100.00
18275;BME280;19470;49.322;7.218;2022-12-22T02:50:12;97797.75;;;13.47;100.00
18275;BME280;19470;49.322;7.218;2022-12-22T02:52:59;97791.84;;;13.21;100.00
18275;BME280;19470;49.322;7.218;2022-12-22T02:55:45;97803.94;;;13.38;100.00
18275;BME280;19470;49.322;7.218;2022-12-22T02:58:30;97783.50;;;13.62;100.00
18275;BME280;19470;49.322;7.218;2022-12-22T03:01:16;97795.06;;;13.23;100.00
18275;BME280;19470;49.322;7.218;2022-12-22T03:04:01;97791.66;;;13.13;100.00
18275;BME280;19470;49.322;7.218;2022-12-22T03:06:44;97778.75;;;13.30;100.00
18275;BME280;19470;49.322;7.218;2022-12-22T03:09:28;97758.41;;;13.15;100.00
18275;BME280;19470;49.322;7.218;2022-12-22T03:12:12;97769.78;;;13.21;100.00
18275;BME280;19470;49.322;7.218;2022-12-22T03:14:56;97772.19;;;13.17;100.00
18275;BME280;19470;49.322;7.218;2022-12-22T03:17:41;97771.69;;;13.15;100.00
18275;BME280;19470;49.322;7.218;2022-12-22T03:20:25;97765.94;;;13.03;100.00
18275;BME280;19470;49.322;7.218;2022-12-22T03:23:09;97759.88;;;13.32;100.00
18275;BME280;19470;49.322;7.218;2022-12-22T03:25:53;97748.81;;;13.19;100.00
18275;BME280;19470;49.322;7.218;2022-12-22T03:28:21;97764.31;;;12.78;100.00
18275;BME280;19470;49.322;7.218;2022-12-22T03:33:23;97734.19;;;12.88;100.00
18275;BME280;19470;49.322;7.218;2022-12-22T03:35:50;97737.25;;;13.05;100.00
18275;BME280;19470;49.322;7.218;2022-12-22T03:38:16;97730.44;;;12.94;100.00
18275;BME280;19470;49.322;7.218;2022-12-22T03:40:43;97735.03;;;12.83;100.00
18275;BME280;19470;49.322;7.218;2022-12-22T03:43:10;97730.84;;;12.77;100.00
18275;BME280;19470;49.322;7.218;2022-12-22T03:45:53;97713.19;;;12.91;100.00
18275;BME280;19470;49.322;7.218;2022-12-22T03:48:50;97718.94;;;13.03;100.00
18275;BME280;19470;49.322;7.218;2022-12-22T03:51:30;97712.00;;;12.73;100.00
18275;BME280;19470;49.322;7.218;2022-12-22T03:53:57;97710.75;;;12.95;100.00
18275;BME280;19470;49.322;7.218;2022-12-22T03:56:24;97720.56;;;12.99;100.00
18275;BME280;19470;49.322;7.218;2022-12-22T03:58:50;97734.28;;;12.77;100.00
18275;BME280;19470;49.322;7.218;2022-12-22T04:04:40;97723.72;;;13.01;100.00
18275;BME280;19470;49.322;7.218;2022-12-22T04:07:06;97714.09;;;13.05;100.00
18275;BME280;19470;49.322;7.218;2022-12-22T04:09:32;97706.94;;;12.77;100.00
18275;BME280;19470;49.322;7.218;2022-12-22T04:11:59;97710.28;;;12.88;100.00
18275;BME280;19470;49.322;7.218;2022-12-22T04:14:43;97727.22;;;12.97;100.00
18275;BME280;19470;49.322;7.218;2022-12-22T04:17:10;97708.53;;;13.31;100.00
18275;BME280;19470;49.322;7.218;2022-12-22T04:19:36;97710.03;;;12.89;100.00
18275;BME280;19470;49.322;7.218;2022-12-22T04:22:04;97705.28;;;13.39;100.00
18275;BME280;19470;49.322;7.218;2022-12-22T04:24:31;97705.03;;;13.36;100.00
18275;BME280;19470;49.322;7.218;2022-12-22T04:26:57;97724.00;;;13.29;100.00
18275;BME280;19470;49.322;7.218;2022-12-22T04:29:24;97720.16;;;13.11;100.00
18275;BME280;19470;49.322;7.218;2022-12-22T04:31:50;97710.97;;;12.98;100.00
18275;BME280;19470;49.322;7.218;2022-12-22T04:34:17;97707.59;;;13.22;100.00
18275;BME280;19470;49.322;7.218;2022-12-22T04:36:43;97706.78;;;12.92;100.00
18275;BME280;19470;49.322;7.218;2022-12-22T04:39:11;97718.72;;;12.95;100.00
18275;BME280;19470;49.322;7.218;2022-12-22T04:41:37;97715.94;;;13.10;100.00
18275;BME280;19470;49.322;7.218;2022-12-22T04:44:04;97720.25;;;13.01;100.00
18275;BME280;19470;49.322;7.218;2022-12-22T04:46:31;97719.31;;;13.16;100.00
18275;BME280;19470;49.322;7.218;2022-12-22T04:48:58;97729.16;;;13.44;100.00
18275;BME280;19470;49.322;7.218;2022-12-22T04:51:24;97726.38;;;13.30;100.00
18275;BME280;19470;49.322;7.218;2022-12-22T04:53:51;97725.38;;;13.21;100.00
18275;BME280;19470;49.322;7.218;2022-12-22T04:56:19;97714.63;;;13.37;100.00
18275;BME280;19470;49.322;7.218;2022-12-22T04:58:45;97718.84;;;13.62;100.00
18275;BME280;19470;49.322;7.218;2022-12-22T05:01:14;97716.91;;;13.19;100.00
18275;BME280;19470;49.322;7.218;2022-12-22T05:03:41;97720.09;;;13.45;100.00
18275;BME280;19470;49.322;7.218;2022-12-22T05:06:07;97735.31;;;13.11;100.00
18275;BME280;19470;49.322;7.218;2022-12-22T05:08:34;97724.41;;;13.12;100.00
18275;BME280;19470;49.322;7.218;2022-12-22T05:11:01;97736.00;;;13.21;100.00
18275;BME280;19470;49.322;7.218;2022-12-22T05:13:29;97720.66;;;13.66;100.00
18275;BME280;19470;49.322;7.218;2022-12-22T05:16:02;97716.88;;;13.24;100.00
18275;BME280;19470;49.322;7.218;2022-12-22T05:18:29;97721.81;;;13.36;100.00
18275;BME280;19470;49.322;7.218;2022-12-22T05:20:55;97712.75;;;13.37;100.00
18275;BME280;19470;49.322;7.218;2022-12-22T05:23:22;97703.34;;;13.45;100.00
18275;BME280;19470;49.322;7.218;2022-12-22T05:25:48;97715.47;;;13.32;100.00
18275;BME280;19470;49.322;7.218;2022-12-22T05:28:15;97729.22;;;13.10;100.00
18275;BME280;19470;49.322;7.218;2022-12-22T05:30:42;97721.25;;;13.10;100.00
18275;BME280;19470;49.322;7.218;2022-12-22T05:33:09;97728.00;;;13.26;100.00
18275;BME280;19470;49.322;7.218;2022-12-22T05:35:35;97715.75;;;13.30;100.00
18275;BME280;19470;49.322;7.218;2022-12-22T05:38:02;97702.88;;;13.14;100.00
18275;BME280;19470;49.322;7.218;2022-12-22T05:40:28;97702.00;;;13.23;100.00
18275;BME280;19470;49.322;7.218;2022-12-22T05:42:55;97717.00;;;13.09;100.00
18275;BME280;19470;49.322;7.218;2022-12-22T05:45:21;97701.22;;;13.47;100.00
18275;BME280;19470;49.322;7.218;2022-12-22T05:47:50;97696.53;;;13.10;100.00
18275;BME280;19470;49.322;7.218;2022-12-22T05:50:21;97704.03;;;13.02;100.00
18275;BME280;19470;49.322;7.218;2022-12-22T05:52:48;97700.94;;;12.95;100.00
18275;BME280;19470;49.322;7.218;2022-12-22T05:55:15;97679.16;;;13.22;100.00
18275;BME280;19470;49.322;7.218;2022-12-22T05:57:42;97693.91;;;12.81;100.00
18275;BME280;19470;49.322;7.218;2022-12-22T06:00:10;97679.22;;;13.12;100.00
18275;BME280;19470;49.322;7.218;2022-12-22T06:02:38;97718.22;;;12.93;100.00
18275;BME280;19470;49.322;7.218;2022-12-22T06:05:06;97679.66;;;12.95;100.00
18275;BME280;19470;49.322;7.218;2022-12-22T06:07:33;97719.28;;;12.92;100.00
18275;BME280;19470;49.322;7.218;2022-12-22T06:10:00;97724.44;;;12.78;100.00
18275;BME280;19470;49.322;7.218;2022-12-22T06:12:26;97715.06;;;12.91;100.00
18275;BME280;19470;49.322;7.218;2022-12-22T06:14:52;97715.28;;;12.94;100.00
18275;BME280;19470;49.322;7.218;2022-12-22T06:17:19;97712.19;;;12.82;100.00
18275;BME280;19470;49.322;7.218;2022-12-22T06:19:45;97698.91;;;12.82;100.00
18275;BME280;19470;49.322;7.218;2022-12-22T06:22:14;97702.91;;;12.79;100.00
18275;BME280;19470;49.322;7.218;2022-12-22T06:24:41;97706.81;;;13.16;100.00
18275;BME280;19470;49.322;7.218;2022-12-22T06:27:07;97701.88;;;12.81;100.00
18275;BME280;19470;49.322;7.218;2022-12-22T06:32:56;97701.66;;;13.01;100.00
18275;BME280;19470;49.322;7.218;2022-12-22T06:35:24;97703.66;;;13.14;100.00
18275;BME280;19470;49.322;7.218;2022-12-22T06:37:52;97694.25;;;12.98;100.00
18275;BME280;19470;49.322;7.218;2022-12-22T06:40:19;97706.72;;;13.32;100.00
18275;BME280;19470;49.322;7.218;2022-12-22T06:42:45;97689.50;;;12.95;100.00
18275;BME280;19470;49.322;7.218;2022-12-22T06:45:29;97690.19;;;12.76;100.00
18275;BME280;19470;49.322;7.218;2022-12-22T06:47:56;97697.44;;;13.00;100.00
18275;BME280;19470;49.322;7.218;2022-12-22T06:50:22;97702.03;;;13.18;100.00
18275;BME280;19470;49.322;7.218;2022-12-22T06:52:49;97700.75;;;13.11;100.00
18275;BME280;19470;49.322;7.218;2022-12-22T06:55:16;97695.38;;;12.92;100.00
18275;BME280;19470;49.322;7.218;2022-12-22T06:57:43;97699.56;;;12.98;100.00
18275;BME280;19470;49.322;7.218;2022-12-22T07:00:10;97701.38;;;13.02;100.00
18275;BME280;19470;49.322;7.218;2022-12-22T07:02:37;97703.81;;;13.28;100.00
18275;BME280;19470;49.322;7.218;2022-12-22T07:05:03;97717.25;;;13.13;100.00
18275;BME280;19470;49.322;7.218;2022-12-22T07:07:30;97702.75;;;13.00;100.00
18275;BME280;19470;49.322;7.218;2022-12-22T07:09:56;97708.53;;;13.31;100.00
18275;BME280;19470;49.322;7.218;2022-12-22T07:12:25;97707.47;;;13.03;100.00
18275;BME280;19470;49.322;7.218;2022-12-22T07:14:51;97707.84;;;13.20;100.00
18275;BME280;19470;49.322;7.218;2022-12-22T07:17:17;97725.53;;;13.06;100.00
18275;BME280;19470;49.322;7.218;2022-12-22T07:19:44;97718.47;;;13.20;100.00
18275;BME280;19470;49.322;7.218;2022-12-22T07:22:10;97734.63;;;12.71;100.00
18275;BME280;19470;49.322;7.218;2022-12-22T07:24:37;97722.00;;;12.87;100.00
18275;BME280;19470;49.322;7.218;2022-12-22T07:27:03;97732.53;;;12.97;100.00
18275;BME280;19470;49.322;7.218;2022-12-22T07:29:31;97727.41;;;13.05;100.00
18275;BME280;19470;49.322;7.218;2022-12-22T07:32:00;97728.59;;;13.18;100.00
18275;BME280;19470;49.322;7.218;2022-12-22T07:34:26;97723.09;;;13.10;100.00
18275;BME280;19470;49.322;7.218;2022-12-22T07:36:53;97728.66;;;13.13;100.00
18275;BME280;19470;49.322;7.218;2022-12-22T07:39:19;97732.63;;;12.87;100.00
18275;BME280;19470;49.322;7.218;2022-12-22T07:41:46;97722.69;;;12.97;100.00
18275;BME280;19470;49.322;7.218;2022-12-22T07:44:31;97729.06;;;12.96;100.00
18275;BME280;19470;49.322;7.218;2022-12-22T07:46:58;97716.63;;;12.92;100.00
18275;BME280;19470;49.322;7.218;2022-12-22T07:49:24;97736.22;;;13.01;100.00
18275;BME280;19470;49.322;7.218;2022-12-22T07:52:08;97716.63;;;12.92;100.00
18275;BME280;19470;49.322;7.218;2022-12-22T07:54:35;97713.06;;;13.01;100.00
18275;BME280;19470;49.322;7.218;2022-12-22T07:57:01;97714.22;;;12.95;100.00
18275;BME280;19470;49.322;7.218;2022-12-22T07:59:28;97725.63;;;12.67;100.00
18275;BME280;19470;49.322;7.218;2022-12-22T08:01:55;97743.22;;;12.58;100.00
18275;BME280;19470;49.322;7.218;2022-12-22T08:04:22;97736.66;;;12.79;100.00
18275;BME280;19470;49.322;7.218;2022-12-22T08:06:48;97732.72;;;12.76;100.00
18275;BME280;19470;49.322;7.218;2022-12-22T08:09:16;97734.88;;;12.69;100.00
18275;BME280;19470;49.322;7.218;2022-12-22T08:11:45;97742.66;;;12.61;100.00
18275;BME280;19470;49.322;7.218;2022-12-22T08:14:13;97731.72;;;12.67;100.00
18275;BME280;19470;49.322;7.218;2022-12-22T08:16:39;97733.78;;;12.75;100.00
18275;BME280;19470;49.322;7.218;2022-12-22T08:19:07;97742.66;;;12.61;100.00
18275;BME280;19470;49.322;7.218;2022-12-22T08:21:34;97755.59;;;12.72;100.00
18275;BME280;19470;49.322;7.218;2022-12-22T08:24:00;97765.78;;;12.55;100.00
18275;BME280;19470;49.322;7.218;2022-12-22T08:26:30;97761.94;;;12.76;100.00
18275;BME280;19470;49.322;7.218;2022-12-22T08:29:02;97758.38;;;12.57;100.00
18275;BME280;19470;49.322;7.218;2022-12-22T08:31:32;97747.22;;;12.55;100.00
18275;BME280;19470;49.322;7.218;2022-12-22T08:34:01;97765.97;;;12.69;100.00
18275;BME280;19470;49.322;7.218;2022-12-22T08:36:33;97773.06;;;12.39;100.00
18275;BME280;19470;49.322;7.218;2022-12-22T08:39:02;97782.78;;;12.59;100.00
18275;BME280;19470;49.322;7.218;2022-12-22T08:41:29;97782.53;;;12.56;100.00
18275;BME280;19470;49.322;7.218;2022-12-22T08:44:14;97770.13;;;12.41;100.00
18275;BME280;19470;49.322;7.218;2022-12-22T08:46:40;97791.09;;;12.47;100.00
18275;BME280;19470;49.322;7.218;2022-12-22T08:49:07;97791.66;;;12.39;100.00
18275;BME280;19470;49.322;7.218;2022-12-22T08:51:35;97805.69;;;12.45;100.00
18275;BME280;19470;49.322;7.218;2022-12-22T08:54:01;97799.50;;;12.15;100.00
18275;BME280;19470;49.322;7.218;2022-12-22T08:56:28;97796.22;;;12.34;100.00
18275;BME280;19470;49.322;7.218;2022-12-22T08:58:55;97814.41;;;12.50;100.00
18275;BME280;19470;49.322;7.218;2022-12-22T09:01:22;97804.16;;;12.39;100.00
18275;BME280;19470;49.322;7.218;2022-12-22T09:03:49;97836.03;;;12.34;100.00
18275;BME280;19470;49.322;7.218;2022-12-22T09:06:16;97832.47;;;12.53;100.00
18275;BME280;19470;49.322;7.218;2022-12-22T09:08:44;97816.94;;;12.26;100.00
18275;BME280;19470;49.322;7.218;2022-12-22T09:11:10;97836.38;;;12.17;100.00
18275;BME280;19470;49.322;7.218;2022-12-22T09:13:37;97798.88;;;12.34;100.00
18275;BME280;19470;49.322;7.218;2022-12-22T09:16:04;97835.25;;;12.33;100.00
18275;BME280;19470;49.322;7.218;2022-12-22T09:18:31;97834.78;;;12.65;100.00
18275;BME280;19470;49.322;7.218;2022-12-22T09:20:58;97851.63;;;12.45;100.00
18275;BME280;19470;49.322;7.218;2022-12-22T09:23:24;97839.72;;;12.43;100.00
18275;BME280;19470;49.322;7.218;2022-12-22T09:25:52;97868.81;;;12.63;100.00
18275;BME280;19470;49.322;7.218;2022-12-22T09:28:19;97863.50;;;12.63;100.00
18275;BME280;19470;49.322;7.218;2022-12-22T09:30:48;97872.53;;;12.62;100.00
18275;BME280;19470;49.322;7.218;2022-12-22T09:33:15;97898.22;;;12.77;100.00
18275;BME280;19470;49.322;7.218;2022-12-22T09:35:42;97874.72;;;12.94;100.00
18275;BME280;19470;49.322;7.218;2022-12-22T09:38:08;97880.09;;;12.84;100.00
18275;BME280;19470;49.322;7.218;2022-12-22T09:40:35;97907.38;;;12.50;100.00
18275;BME280;19470;49.322;7.218;2022-12-22T09:43:03;97900.66;;;12.68;100.00
18275;BME280;19470;49.322;7.218;2022-12-22T09:45:29;97904.72;;;13.00;100.00
18275;BME280;19470;49.322;7.218;2022-12-22T09:47:58;97918.94;;;12.75;100.00
18275;BME280;19470;49.322;7.218;2022-12-22T09:50:26;97906.19;;;12.77;100.00
18275;BME280;19470;49.322;7.218;2022-12-22T09:52:55;97914.09;;;12.87;100.00
18275;BME280;19470;49.322;7.218;2022-12-22T09:55:35;97938.84;;;12.77;100.00
18275;BME280;19470;49.322;7.218;2022-12-22T09:58:07;97936.38;;;12.91;100.00
18275;BME280;19470;49.322;7.218;2022-12-22T10:00:38;97942.28;;;12.83;100.00
18275;BME280;19470;49.322;7.218;2022-12-22T10:03:09;97952.59;;;12.95;100.00
18275;BME280;19470;49.322;7.218;2022-12-22T10:05:43;97960.56;;;12.95;100.00
18275;BME280;19470;49.322;7.218;2022-12-22T10:08:13;97957.31;;;13.08;100.00
18275;BME280;19470;49.322;7.218;2022-12-22T10:10:41;97936.16;;;12.83;100.00
18275;BME280;19470;49.322;7.218;2022-12-22T10:13:16;97995.59;;;13.02;100.00
18275;BME280;19470;49.322;7.218;2022-12-22T10:15:43;97973.66;;;13.30;100.00
18275;BME280;19470;49.322;7.218;2022-12-22T10:18:11;97973.56;;;13.41;100.00
18275;BME280;19470;49.322;7.218;2022-12-22T10:20:39;97971.50;;;13.38;100.00
18275;BME280;19470;49.322;7.218;2022-12-22T10:23:14;97987.56;;;13.22;100.00
18275;BME280;19470;49.322;7.218;2022-12-22T10:25:57;97967.50;;;13.35;100.00
18275;BME280;19470;49.322;7.218;2022-12-22T10:28:29;98009.44;;;12.99;100.00
18275;BME280;19470;49.322;7.218;2022-12-22T10:31:11;97995.44;;;13.38;100.00
18275;BME280;19470;49.322;7.218;2022-12-22T10:33:39;97986.53;;;13.52;100.00
18275;BME280;19470;49.322;7.218;2022-12-22T10:36:06;97994.97;;;13.20;100.00
18275;BME280;19470;49.322;7.218;2022-12-22T10:38:35;97993.09;;;13.26;100.00
18275;BME280;19470;49.322;7.218;2022-12-22T10:41:11;97996.28;;;13.28;100.00
18275;BME280;19470;49.322;7.218;2022-12-22T10:43:46;98035.91;;;13.19;100.00
18275;BME280;19470;49.322;7.218;2022-12-22T10:46:14;98010.09;;;13.30;100.00
18275;BME280;19470;49.322;7.218;2022-12-22T10:48:41;98000.28;;;13.20;100.00
18275;BME280;19470;49.322;7.218;2022-12-22T10:51:09;98036.94;;;13.34;100.00
18275;BME280;19470;49.322;7.218;2022-12-22T10:53:39;98003.06;;;13.00;100.00
18275;BME280;19470;49.322;7.218;2022-12-22T10:56:17;98021.28;;;13.17;100.00
18275;BME280;19470;49.322;7.218;2022-12-22T10:58:48;98006.34;;;13.36;100.00
18275;BME280;19470;49.322;7.218;2022-12-22T11:01:23;98045.59;;;12.95;100.00
18275;BME280;19470;49.322;7.218;2022-12-22T11:03:50;98041.72;;;13.37;100.00
18275;BME280;19470;49.322;7.218;2022-12-22T11:06:16;98063.63;;;13.03;100.00
18275;BME280;19470;49.322;7.218;2022-12-22T11:08:44;98040.75;;;13.07;100.00
18275;BME280;19470;49.322;7.218;2022-12-22T11:11:16;98037.00;;;13.23;100.00
18275;BME280;19470;49.322;7.218;2022-12-22T11:13:54;98042.31;;;13.23;100.00
18275;BME280;19470;49.322;7.218;2022-12-22T11:16:28;98023.06;;;12.77;100.00
18275;BME280;19470;49.322;7.218;2022-12-22T11:19:13;98036.38;;;13.37;100.00
18275;BME280;19470;49.322;7.218;2022-12-22T11:21:49;98056.44;;;13.09;100.00
18275;BME280;19470;49.322;7.218;2022-12-22T11:24:26;98058.25;;;13.23;100.00
18275;BME280;19470;49.322;7.218;2022-12-22T11:27:06;98052.72;;;13.10;100.00
18275;BME280;19470;49.322;7.218;2022-12-22T11:29:59;98068.94;;;13.03;100.00
18275;BME280;19470;49.322;7.218;2022-12-22T11:32:48;98056.13;;;13.15;100.00
18275;BME280;19470;49.322;7.218;2022-12-22T11:35:24;98074.25;;;13.03;100.00
18275;BME280;19470;49.322;7.218;2022-12-22T11:37:56;98067.53;;;13.26;100.00
18275;BME280;19470;49.322;7.218;2022-12-22T11:40:30;98065.97;;;13.25;100.00
18275;BME280;19470;49.322;7.218;2022-12-22T11:43:15;98076.69;;;13.54;100.00
18275;BME280;19470;49.322;7.218;2022-12-22T11:45:54;98080.84;;;13.16;100.00
18275;BME280;19470;49.322;7.218;2022-12-22T11:48:32;98081.50;;;13.52;100.00
18275;BME280;19470;49.322;7.218;2022-12-22T11:51:06;98086.78;;;13.57;100.00
18275;BME280;19470;49.322;7.218;2022-12-22T11:53:52;98100.97;;;13.42;100.00
18275;BME280;19470;49.322;7.218;2022-12-22T11:56:28;98076.78;;;13.83;100.00
18275;BME280;19470;49.322;7.218;2022-12-22T11:59:07;98067.25;;;13.33;100.00
18275;BME280;19470;49.322;7.218;2022-12-22T12:02:11;98094.38;;;13.29;100.00
18275;BME280;19470;49.322;7.218;2022-12-22T12:05:10;98080.34;;;13.68;100.00
18275;BME280;19470;49.322;7.218;2022-12-22T12:07:42;98083.78;;;13.19;100.00
18275;BME280;19470;49.322;7.218;2022-12-22T12:10:14;98094.41;;;13.19;100.00
18275;BME280;19470;49.322;7.218;2022-12-22T12:12:48;98074.72;;;13.20;100.00
18275;BME280;19470;49.322;7.218;2022-12-22T12:15:27;98070.81;;;13.62;100.00
18275;BME280;19470;49.322;7.218;2022-12-22T12:18:23;98074.88;;;13.44;100.00
18275;BME280;19470;49.322;7.218;2022-12-22T12:20:59;98086.25;;;13.60;100.00
18275;BME280;19470;49.322;7.218;2022-12-22T12:23:55;98086.28;;;13.50;100.00
18275;BME280;19470;49.322;7.218;2022-12-22T12:26:26;98081.56;;;13.42;100.00
18275;BME280;19470;49.322;7.218;2022-12-22T12:29:05;98084.31;;;13.71;100.00
18275;BME280;19470;49.322;7.218;2022-12-22T12:31:40;98092.50;;;13.79;100.00
18275;BME280;19470;49.322;7.218;2022-12-22T12:34:11;98089.03;;;13.35;100.00
18275;BME280;19470;49.322;7.218;2022-12-22T12:36:44;98094.53;;;13.53;100.00
18275;BME280;19470;49.322;7.218;2022-12-22T12:39:17;98086.69;;;13.28;100.00
18275;BME280;19470;49.322;7.218;2022-12-22T12:41:55;98094.38;;;13.29;100.00
18275;BME280;19470;49.322;7.218;2022-12-22T12:44:25;98108.81;;;13.03;100.00
18275;BME280;19470;49.322;7.218;2022-12-22T12:47:19;98095.34;;;13.49;100.00
18275;BME280;19470;49.322;7.218;2022-12-22T12:49:56;98087.13;;;13.40;100.00
18275;BME280;19470;49.322;7.218;2022-12-22T12:56:04;98100.41;;;13.50;100.00
18275;BME280;19470;49.322;7.218;2022-12-22T12:58:51;98095.38;;;13.44;100.00
18275;BME280;19470;49.322;7.218;2022-12-22T13:08:08;98109.69;;;13.53;100.00
18275;BME280;19470;49.322;7.218;2022-12-22T13:10:38;98107.84;;;13.48;100.00
18275;BME280;19470;49.322;7.218;2022-12-22T13:13:05;98128.13;;;13.34;100.00
18275;BME280;19470;49.322;7.218;2022-12-22T13:15:36;98116.09;;;13.52;100.00
18275;BME280;19470;49.322;7.218;2022-12-22T13:18:09;98106.22;;;13.58;100.00
18275;BME280;19470;49.322;7.218;2022-12-22T13:20:41;98123.91;;;13.77;100.00
18275;BME280;19470;49.322;7.218;2022-12-22T13:23:13;98121.06;;;14.08;100.00
18275;BME280;19470;49.322;7.218;2022-12-22T13:25:46;98117.34;;;13.65;100.00
18275;BME280;19470;49.322;7.218;2022-12-22T13:28:15;98117.41;;;13.49;100.00
18275;BME280;19470;49.322;7.218;2022-12-22T13:30:46;98113.53;;;13.32;100.00
18275;BME280;19470;49.322;7.218;2022-12-22T13:33:15;98106.63;;;13.25;100.00
18275;BME280;19470;49.322;7.218;2022-12-22T13:35:44;98106.69;;;13.05;100.00
18275;BME280;19470;49.322;7.218;2022-12-22T13:38:27;98105.56;;;13.16;100.00
18275;BME280;19470;49.322;7.218;2022-12-22T13:40:55;98109.16;;;12.76;100.00
18275;BME280;19470;49.322;7.218;2022-12-22T13:43:22;98107.56;;;12.70;100.00
18275;BME280;19470;49.322;7.218;2022-12-22T13:45:51;98098.78;;;12.79;100.00
18275;BME280;19470;49.322;7.218;2022-12-22T13:48:21;98102.56;;;12.48;100.00